createdAt,value
2018-04-22T00:02:01.297Z,52.30
2018-04-22T00:07:04.563Z,52.50
2018-04-22T00:12:07.043Z,52.40
2018-04-22T00:17:09.532Z,52.40
2018-04-22T00:22:12.033Z,52.40
2018-04-22T00:27:14.563Z,52.20
2018-04-22T00:32:17.044Z,52.50
2018-04-22T00:37:19.539Z,52.50
2018-04-22T00:42:22.042Z,52.60
2018-04-22T00:47:24.533Z,52.40
2018-04-22T00:52:27.040Z,52.50
2018-04-22T00:57:30.305Z,52.60
2018-04-22T01:02:32.822Z,52.70
2018-04-22T01:07:36.077Z,52.80
2018-04-22T01:12:38.600Z,52.90
2018-04-22T01:17:41.097Z,52.40
2018-04-22T01:22:43.600Z,52.70
2018-04-22T01:27:46.115Z,52.70
2018-04-22T01:32:48.608Z,52.70
2018-04-22T01:37:51.128Z,52.90
2018-04-22T01:42:54.400Z,52.60
2018-04-22T01:47:56.888Z,53.00
2018-04-22T01:52:59.364Z,52.80
2018-04-22T01:58:01.849Z,52.80
2018-04-22T02:03:04.357Z,53.00
2018-04-22T02:08:06.860Z,52.90
2018-04-22T02:13:09.360Z,52.90
2018-04-22T02:18:11.868Z,52.90
2018-04-22T02:23:14.343Z,52.90
2018-04-22T02:28:16.843Z,53.00
2018-04-22T02:33:19.340Z,53.00
2018-04-22T02:38:21.840Z,53.00
2018-04-22T02:43:24.325Z,53.20
2018-04-22T02:48:26.811Z,53.00
2018-04-22T02:53:29.304Z,53.00
2018-04-22T02:58:31.809Z,53.00
2018-04-22T03:03:34.336Z,52.90
2018-04-22T03:08:36.828Z,53.00
2018-04-22T03:13:39.319Z,53.00
2018-04-22T03:18:41.818Z,52.90
2018-04-22T03:23:44.312Z,53.00
2018-04-22T03:28:46.838Z,53.00
2018-04-22T03:33:49.328Z,53.00
2018-04-22T03:38:51.827Z,52.90
2018-04-22T03:43:54.336Z,53.10
2018-04-22T03:48:57.228Z,52.80
2018-04-22T03:53:59.719Z,53.00
2018-04-22T03:59:02.215Z,53.20
2018-04-22T04:04:04.719Z,53.10
2018-04-22T04:09:07.228Z,53.10
2018-04-22T04:14:10.475Z,53.20
2018-04-22T04:19:24.781Z,53.10
2018-04-22T04:24:39.159Z,53.40
2018-04-22T04:29:41.656Z,53.40
2018-04-22T04:34:45.744Z,53.50
2018-04-22T04:39:48.275Z,53.30
2018-04-22T04:44:50.760Z,53.40
2018-04-22T04:49:53.260Z,53.10
2018-04-22T04:54:55.747Z,53.30
2018-04-22T04:59:58.228Z,53.30
2018-04-22T05:05:00.746Z,53.20
2018-04-22T05:10:03.237Z,53.30
2018-04-22T05:15:05.736Z,53.40
2018-04-22T05:20:08.993Z,53.40
2018-04-22T05:25:11.484Z,53.20
2018-04-22T05:30:13.975Z,53.40
2018-04-22T05:35:16.479Z,53.30
2018-04-22T05:40:18.981Z,53.30
2018-04-22T05:45:21.489Z,53.10
2018-04-22T05:50:24.009Z,53.30
2018-04-22T05:55:27.281Z,53.50
2018-04-22T06:00:29.783Z,53.50
2018-04-22T06:05:32.268Z,53.50
2018-04-22T06:10:34.772Z,53.30
2018-04-22T06:15:37.268Z,53.50
2018-04-22T06:20:39.777Z,53.70
2018-04-22T06:25:42.260Z,53.90
2018-04-22T06:30:44.748Z,53.80
2018-04-22T06:35:47.228Z,53.90
2018-04-22T06:40:49.723Z,53.90
2018-04-22T06:45:52.221Z,53.70
2018-04-22T06:50:54.715Z,53.90
2018-04-22T06:55:57.227Z,53.70
2018-04-22T07:00:59.816Z,54.10
2018-04-22T07:06:03.073Z,54.40
2018-04-22T07:11:05.558Z,53.90
2018-04-22T07:16:08.072Z,53.80
2018-04-22T07:21:10.568Z,53.80
2018-04-22T07:26:13.136Z,54.10
2018-04-22T07:31:15.640Z,54.00
2018-04-22T07:36:18.136Z,54.20
2018-04-22T07:41:22.531Z,54.00
2018-04-22T07:46:26.052Z,54.80
2018-04-22T07:51:29.315Z,54.50
2018-04-22T07:56:31.816Z,54.60
2018-04-22T08:01:34.376Z,54.60
2018-04-22T08:06:36.903Z,54.80
2018-04-22T08:11:39.391Z,55.50
2018-04-22T08:16:41.914Z,56.10
2018-04-22T08:21:44.397Z,56.40
2018-04-22T08:26:46.893Z,57.30
2018-04-22T08:31:49.396Z,57.30
2018-04-22T08:36:52.657Z,57.30
2018-04-22T08:41:55.163Z,58.00
2018-04-22T08:46:57.651Z,57.60
2018-04-22T08:52:00.136Z,57.10
2018-04-22T08:57:02.643Z,57.10
2018-04-22T09:02:05.163Z,57.30
2018-04-22T09:07:07.640Z,58.50
2018-04-22T09:12:10.130Z,58.40
2018-04-22T09:17:12.622Z,58.90
2018-04-22T09:22:15.131Z,61.40
2018-04-22T09:27:17.637Z,63.30
2018-04-22T09:32:20.888Z,61.90
2018-04-22T09:37:23.407Z,61.70
2018-04-22T09:42:25.900Z,60.70
2018-04-22T09:47:28.399Z,61.00
2018-04-22T09:52:30.897Z,60.00
2018-04-22T09:57:33.384Z,60.00
2018-04-22T10:02:35.897Z,59.70
2018-04-22T10:07:39.155Z,58.40
2018-04-22T10:12:41.677Z,58.10
2018-04-22T10:17:44.166Z,57.20
2018-04-22T10:22:46.662Z,56.50
2018-04-22T10:27:49.149Z,56.20
2018-04-22T10:32:52.407Z,54.50
2018-04-22T10:37:54.912Z,54.50
2018-04-22T10:42:57.408Z,54.10
2018-04-22T10:47:59.896Z,53.50
2018-04-22T10:53:02.407Z,52.90
2018-04-22T10:58:04.909Z,53.70
2018-04-22T11:03:07.388Z,54.50
2018-04-22T11:08:09.868Z,55.60
2018-04-22T11:13:12.359Z,54.70
2018-04-22T11:18:14.844Z,53.80
2018-04-22T11:23:17.352Z,54.60
2018-04-22T11:28:19.857Z,54.60
2018-04-22T11:33:22.344Z,56.40
2018-04-22T11:38:24.852Z,56.30
2018-04-22T11:43:27.333Z,55.40
2018-04-22T11:48:29.812Z,55.30
2018-04-22T11:53:32.314Z,53.00
2018-04-22T11:58:34.787Z,52.70
2018-04-22T12:03:37.289Z,54.20
2018-04-22T12:08:39.800Z,52.40
2018-04-22T12:13:42.287Z,51.40
2018-04-22T12:18:44.780Z,50.80
2018-04-22T12:23:47.293Z,52.50
2018-04-22T12:28:49.788Z,52.10
2018-04-22T12:33:52.289Z,54.10
2018-04-22T12:38:54.779Z,50.20
2018-04-22T12:43:57.276Z,47.30
2018-04-22T12:48:59.756Z,46.70
2018-04-22T12:54:03.015Z,47.00
2018-04-22T12:59:06.272Z,44.20
2018-04-22T13:04:08.768Z,44.80
2018-04-22T13:09:11.261Z,44.80
2018-04-22T13:14:13.813Z,45.00
2018-04-22T13:19:16.255Z,45.50
2018-04-22T13:24:18.742Z,42.90
2018-04-22T13:29:21.239Z,44.50
2018-04-22T13:34:23.724Z,44.70
2018-04-22T13:39:26.199Z,43.40
2018-04-22T13:44:28.692Z,42.20
2018-04-22T13:49:31.195Z,43.20
2018-04-22T13:54:33.679Z,44.20
2018-04-22T13:59:36.192Z,43.20
2018-04-22T14:04:38.659Z,43.40
2018-04-22T14:09:41.144Z,44.10
2018-04-22T14:14:43.647Z,44.30
2018-04-22T14:19:46.179Z,46.40
2018-04-22T14:24:48.636Z,47.90
2018-04-22T14:29:51.136Z,46.90
2018-04-22T14:34:53.636Z,47.80
2018-04-22T14:39:56.129Z,48.20
2018-04-22T14:45:10.440Z,47.90
2018-04-22T14:50:13.712Z,49.80
2018-04-22T14:55:16.213Z,49.70
2018-04-22T15:00:18.688Z,48.80
2018-04-22T15:05:21.187Z,49.20
2018-04-22T15:10:23.671Z,50.80
2018-04-22T15:15:26.192Z,51.30
2018-04-22T15:20:28.692Z,51.10
2018-04-22T15:25:31.167Z,50.80
2018-04-22T15:30:33.690Z,50.60
2018-04-22T15:35:36.184Z,50.70
2018-04-22T15:40:39.435Z,50.80
2018-04-22T15:45:41.916Z,50.80
2018-04-22T15:50:44.416Z,50.70
2018-04-22T15:55:46.924Z,50.60
2018-04-22T16:00:52.154Z,52.00
2018-04-22T16:05:54.640Z,54.40
2018-04-22T16:10:57.917Z,53.60
2018-04-22T16:16:00.420Z,53.50
2018-04-22T16:21:02.916Z,53.10
2018-04-22T16:26:05.404Z,52.90
2018-04-22T16:31:07.903Z,52.80
2018-04-22T16:36:10.404Z,53.00
2018-04-22T16:41:12.903Z,53.20
2018-04-22T16:46:16.164Z,53.70
2018-04-22T16:51:18.648Z,53.70
2018-04-22T16:56:21.136Z,53.70
2018-04-22T17:01:23.624Z,53.60
2018-04-22T17:06:26.128Z,53.60
2018-04-22T17:11:28.616Z,53.60
2018-04-22T17:16:31.116Z,54.30
2018-04-22T17:21:33.604Z,54.20
2018-04-22T17:26:36.097Z,54.50
2018-04-22T17:31:38.581Z,54.50
2018-04-22T17:36:41.064Z,54.50
2018-04-22T17:41:43.564Z,54.60
2018-04-22T17:46:46.056Z,54.50
2018-04-22T17:51:48.564Z,54.50
2018-04-22T17:56:51.060Z,54.50
2018-04-22T18:01:53.574Z,54.20
2018-04-22T18:06:56.079Z,54.30
2018-04-22T18:11:58.580Z,54.50
2018-04-22T18:17:01.077Z,54.30
2018-04-22T18:22:03.578Z,54.70
2018-04-22T18:27:06.836Z,54.60
2018-04-22T18:32:09.336Z,54.60
2018-04-22T18:37:12.608Z,54.50
2018-04-22T18:42:15.859Z,54.50
2018-04-22T18:47:18.364Z,54.50
2018-04-22T18:52:20.873Z,54.40
2018-04-22T18:57:23.368Z,54.70
2018-04-22T19:02:25.889Z,54.70
2018-04-22T19:07:29.136Z,54.80
2018-04-22T19:12:31.627Z,54.70
2018-04-22T19:17:34.137Z,54.50
2018-04-22T19:22:36.621Z,54.40
2018-04-22T19:27:39.119Z,54.40
2018-04-22T19:32:41.611Z,54.30
2018-04-22T19:37:44.114Z,54.40
2018-04-22T19:42:47.370Z,54.30
2018-04-22T19:47:50.633Z,54.40
2018-04-22T19:52:53.120Z,54.30
2018-04-22T19:57:55.612Z,54.30
2018-04-22T20:02:58.122Z,54.30
2018-04-22T20:08:00.595Z,54.40
2018-04-22T20:13:03.101Z,54.20
2018-04-22T20:18:06.381Z,54.40
2018-04-22T20:23:08.868Z,54.50
2018-04-22T20:28:11.355Z,54.50
2018-04-22T20:33:13.857Z,54.40
2018-04-22T20:38:16.347Z,54.70
2018-04-22T20:43:18.843Z,54.50
2018-04-22T20:48:21.336Z,54.60
2018-04-22T20:53:23.832Z,54.60
2018-04-22T20:58:26.319Z,54.70
2018-04-22T21:03:28.832Z,54.90
2018-04-22T21:08:31.312Z,55.00
2018-04-22T21:13:33.800Z,55.00
2018-04-22T21:18:36.308Z,54.90
2018-04-22T21:23:38.804Z,55.00
2018-04-22T21:28:42.060Z,55.20
2018-04-22T21:33:44.826Z,55.00
2018-04-22T21:38:47.326Z,55.10
2018-04-22T21:43:49.832Z,55.20
2018-04-22T21:48:52.328Z,55.30
2018-04-22T21:53:54.820Z,55.40
2018-04-22T21:58:57.741Z,55.60
2018-04-22T22:04:01.002Z,56.20
2018-04-22T22:09:03.501Z,55.40
2018-04-22T22:14:05.985Z,55.30
2018-04-22T22:19:08.472Z,55.50
2018-04-22T22:24:10.967Z,55.60
2018-04-22T22:29:13.447Z,55.70
2018-04-22T22:34:15.945Z,55.90
2018-04-22T22:39:18.451Z,56.00
2018-04-22T22:44:20.931Z,56.20
2018-04-22T22:49:23.432Z,55.90
2018-04-22T22:54:26.007Z,56.20
2018-04-22T22:59:28.488Z,56.20
2018-04-22T23:04:30.985Z,56.10
2018-04-22T23:09:33.485Z,56.60
2018-04-22T23:14:36.740Z,56.50
2018-04-22T23:19:39.243Z,56.70
2018-04-22T23:24:42.505Z,56.40
2018-04-22T23:29:45.768Z,56.60
2018-04-22T23:34:48.272Z,56.40
2018-04-22T23:39:50.769Z,56.70
2018-04-22T23:44:53.280Z,56.70
2018-04-22T23:49:55.776Z,56.80
2018-04-22T23:54:58.259Z,56.80
